Главная страница
METAR-TAF:

METAR-TAF

Аэропорты :

Brookhaven Airport

Шерли, Нью-Йорк, США

широта: 40-49-18N, долгота: 072-52-08W, высота над уровнем моря: 25 м

Текущие метеонаблюдения

Эта сводка был подготовлена 38 минут назад, в 14:56 UTC
Ветер 6 Узел от западный-юго-западный
Температура 8°C
Влажность 36%
Давление 1024 hPa
Видимость: 16.1 км
ясное небо

METAR: KHWV 151456Z AUTO 24006KT 10SM CLR 08/M06 A3023 RMK AO2 SLP238 T00831056 58006

Время: 10:34 (15:34 UTC)


TAF: отсутствует

Метеонаблюдения и прогнозы для более 4000 аэропортов (сводки METAR и TAF).

Имеющиеся станции представлены на карте желтыми и красными точками.

Чтобы увидеть название станции, наведите на нее мышь.

Затем щелкните, чтобы увидеть метеонаблюдения и метеопрогнозы.

Управление картой: чтобы увеличить масштаб, щелкните зеленые кнопки с черным крестиком; чтобы уменьшить масштаб, щелкните зеленую кнопку с тире; для просмотра соседних карт щелкайте зеленые стрелки.


METAR-TAF: